createdAt,value
2016-08-14T10:40:44.608Z,385
2016-08-14T10:41:46.536Z,405
2016-08-14T10:42:45.890Z,405
2016-08-14T10:43:46.881Z,405
2016-08-14T10:44:46.765Z,415
2016-08-14T10:45:46.952Z,440
2016-08-14T10:46:47.022Z,450
2016-08-14T10:47:46.161Z,465
2016-08-14T10:48:47.365Z,465
2016-08-14T10:49:46.625Z,460
2016-08-14T10:50:46.721Z,460
2016-08-14T10:51:45.864Z,455
2016-08-14T10:52:45.945Z,450
2016-08-14T10:53:46.408Z,440
2016-08-14T10:54:46.016Z,410
2016-08-14T10:55:46.114Z,395
2016-08-14T10:56:45.915Z,390
2016-08-14T10:57:46.251Z,385
2016-08-14T10:58:46.684Z,400
2016-08-14T10:59:45.911Z,410
2016-08-14T11:00:45.919Z,395
2016-08-14T11:01:46.232Z,400
2016-08-14T11:02:46.735Z,445
2016-08-14T11:03:45.876Z,470
2016-08-14T11:04:45.995Z,475
2016-08-14T11:05:45.968Z,465
2016-08-14T11:06:47.935Z,455
2016-08-14T11:07:46.865Z,445
2016-08-14T11:08:46.482Z,430
2016-08-14T11:09:46.299Z,400
2016-08-14T11:10:45.920Z,380
2016-08-14T11:11:46.433Z,370
2016-08-14T11:12:46.475Z,360
2016-08-14T11:13:46.148Z,360
2016-08-14T11:14:46.834Z,360
2016-08-14T11:15:46.252Z,365
2016-08-14T11:16:45.917Z,380
2016-08-14T11:17:46.860Z,390
2016-08-14T11:18:46.114Z,395
2016-08-14T11:19:46.002Z,400
2016-08-14T11:20:46.023Z,410
2016-08-14T11:21:45.972Z,420
2016-08-14T11:22:46.536Z,425
2016-08-14T11:23:45.982Z,425
2016-08-14T11:24:45.967Z,425
2016-08-14T11:25:45.932Z,430
2016-08-14T11:26:46.107Z,425
2016-08-14T11:27:46.020Z,430
2016-08-14T11:28:46.404Z,425
2016-08-14T11:29:46.436Z,420
2016-08-14T11:30:46.236Z,410
2016-08-14T11:31:45.940Z,380
2016-08-14T11:32:45.902Z,360
2016-08-14T11:33:46.068Z,350
2016-08-14T11:34:46.053Z,360
2016-08-14T11:35:46.065Z,360
2016-08-14T11:36:45.994Z,375
2016-08-14T11:37:45.943Z,395
2016-08-14T11:38:46.213Z,415
2016-08-14T11:39:47.021Z,435
2016-08-14T11:40:46.064Z,450
2016-08-14T11:41:45.953Z,475
2016-08-14T11:42:45.915Z,485
2016-08-14T11:43:45.922Z,495
2016-08-14T11:44:45.959Z,495
2016-08-14T11:45:45.983Z,505
2016-08-14T11:46:46.049Z,510
2016-08-14T11:47:46.794Z,515
2016-08-14T11:48:45.983Z,515
2016-08-14T11:49:45.987Z,515
2016-08-14T11:50:46.049Z,505
2016-08-14T11:51:46.029Z,495
2016-08-14T11:52:46.056Z,490
2016-08-14T11:53:46.071Z,480
2016-08-14T11:54:46.359Z,490
2016-08-14T11:55:46.157Z,480
2016-08-14T11:56:45.984Z,480
2016-08-14T11:57:46.044Z,475
2016-08-14T11:58:46.074Z,470
2016-08-14T11:59:46.004Z,470
2016-08-14T12:00:46.092Z,440
2016-08-14T12:01:46.056Z,440
2016-08-14T12:02:46.979Z,420
2016-08-14T12:03:46.006Z,405
2016-08-14T12:04:46.018Z,395
2016-08-14T12:05:46.035Z,380
2016-08-14T12:06:46.256Z,385
2016-08-14T12:07:46.015Z,410
2016-08-14T12:08:46.575Z,435
2016-08-14T12:09:46.233Z,455
2016-08-14T12:10:46.304Z,455
2016-08-14T12:11:46.677Z,455
2016-08-14T12:12:45.973Z,450
2016-08-14T12:13:45.985Z,455
2016-08-14T12:14:46.107Z,460
2016-08-14T12:15:46.506Z,460
2016-08-14T12:16:47.404Z,450
2016-08-14T12:17:46.118Z,445
2016-08-14T12:18:46.543Z,450
2016-08-14T12:19:46.753Z,455
2016-08-14T12:20:46.043Z,460
2016-08-14T12:21:46.555Z,455
2016-08-14T12:22:46.284Z,440
2016-08-14T12:23:46.146Z,440
2016-08-14T12:24:46.061Z,450
2016-08-14T12:25:46.194Z,465
2016-08-14T12:26:46.065Z,460
2016-08-14T12:27:46.098Z,435
2016-08-14T12:28:53.980Z,430
2016-08-14T12:30:07.660Z,430
2016-08-14T12:30:46.142Z,430
2016-08-14T12:32:33.709Z,440
2016-08-14T12:33:49.221Z,440
2016-08-14T12:34:42.809Z,435
2016-08-14T12:36:03.064Z,445
2016-08-14T12:36:59.280Z,440
2016-08-14T12:37:38.952Z,440
2016-08-14T12:38:44.085Z,440
2016-08-14T12:39:44.809Z,440
2016-08-14T12:41:01.119Z,430
2016-08-14T12:42:28.352Z,390
2016-08-14T12:43:52.978Z,330
2016-08-14T12:45:19.196Z,275
2016-08-14T12:46:43.707Z,240
2016-08-14T12:48:10.360Z,230
2016-08-14T12:49:33.806Z,225
2016-08-14T12:50:51.179Z,200
2016-08-14T12:52:13.427Z,180
2016-08-14T12:53:36.133Z,165
2016-08-14T12:55:02.423Z,170
2016-08-14T12:55:45.618Z,165
2016-08-14T12:57:14.749Z,165
2016-08-14T12:58:32.617Z,160
2016-08-14T12:59:32.009Z,165
2016-08-14T13:00:09.157Z,160
2016-08-14T13:00:58.967Z,165
2016-08-14T13:01:57.598Z,170
2016-08-14T13:02:55.133Z,175
2016-08-14T13:03:52.993Z,175
2016-08-14T13:04:52.835Z,185
2016-08-14T13:05:52.838Z,185
2016-08-14T13:06:57.416Z,185
2016-08-14T13:07:52.781Z,180
2016-08-14T13:08:53.089Z,190
2016-08-14T13:09:53.884Z,200
2016-08-14T13:10:53.551Z,205
2016-08-14T13:11:52.994Z,210
2016-08-14T13:12:53.625Z,210
2016-08-14T13:13:53.444Z,230
2016-08-14T13:14:52.798Z,240
2016-08-14T13:15:52.818Z,250
2016-08-14T13:16:52.753Z,250
2016-08-14T13:17:53.051Z,255
2016-08-14T13:18:52.775Z,240
2016-08-14T13:19:52.835Z,240
2016-08-14T13:20:52.930Z,240
2016-08-14T13:21:53.028Z,245
2016-08-14T13:22:52.888Z,235
2016-08-14T13:23:52.792Z,230
2016-08-14T13:24:52.932Z,230
2016-08-14T13:25:52.856Z,240
2016-08-14T13:26:52.880Z,250
2016-08-14T13:27:52.786Z,265
2016-08-14T13:28:53.765Z,280
2016-08-14T13:29:52.761Z,300
2016-08-14T13:30:53.474Z,310
2016-08-14T13:31:52.755Z,310
2016-08-14T13:32:53.723Z,320
2016-08-14T13:33:52.795Z,330
2016-08-14T13:34:52.886Z,335
2016-08-14T13:35:52.800Z,340
2016-08-14T13:36:52.797Z,345
2016-08-14T13:37:52.756Z,355
2016-08-14T13:38:52.807Z,340
2016-08-14T13:39:52.819Z,330
2016-08-14T13:40:52.868Z,320
2016-08-14T13:41:52.961Z,300
2016-08-14T13:42:52.937Z,280
2016-08-14T13:43:52.753Z,265
2016-08-14T13:44:52.803Z,255
2016-08-14T13:45:53.493Z,225
2016-08-14T13:46:52.999Z,215
2016-08-14T13:47:52.824Z,205
2016-08-14T13:48:52.810Z,190
2016-08-14T13:49:52.932Z,185
2016-08-14T13:50:52.804Z,185
2016-08-14T13:51:52.834Z,195
2016-08-14T13:52:52.852Z,185
2016-08-14T13:53:52.841Z,175
2016-08-14T13:54:52.991Z,165
2016-08-14T13:55:53.055Z,160
2016-08-14T13:56:52.797Z,160
2016-08-14T13:57:52.846Z,160
2016-08-14T13:58:52.970Z,160
2016-08-14T13:59:52.891Z,160
2016-08-14T14:00:52.854Z,155
2016-08-14T14:01:52.782Z,155
2016-08-14T14:02:52.787Z,150
2016-08-14T14:03:52.828Z,160
2016-08-14T14:04:52.881Z,155
2016-08-14T14:05:52.800Z,155
2016-08-14T14:06:52.875Z,155
2016-08-14T14:07:52.866Z,155
2016-08-14T14:08:52.848Z,155
2016-08-14T14:09:53.060Z,155
2016-08-14T14:10:52.821Z,150
2016-08-14T14:11:52.865Z,150
2016-08-14T14:12:52.817Z,150
2016-08-14T14:13:53.047Z,150
2016-08-14T14:14:52.988Z,155
2016-08-14T14:15:53.282Z,155
2016-08-14T14:16:52.858Z,160
2016-08-14T14:17:53.017Z,170
2016-08-14T14:18:53.004Z,180
2016-08-14T14:19:52.933Z,180
2016-08-14T14:20:53.027Z,190
2016-08-14T14:21:53.046Z,195
2016-08-14T14:22:53.038Z,200
2016-08-14T14:23:52.875Z,210
2016-08-14T14:24:52.875Z,215
2016-08-14T14:25:52.896Z,215
2016-08-14T14:26:53.013Z,210
2016-08-14T14:27:52.971Z,205
2016-08-14T14:28:52.830Z,195
2016-08-14T14:29:52.861Z,175
2016-08-14T14:30:52.862Z,165
2016-08-14T14:31:52.913Z,155
2016-08-14T14:32:52.997Z,150
2016-08-14T14:33:52.900Z,150
2016-08-14T14:34:52.839Z,150
2016-08-14T14:35:52.832Z,150
2016-08-14T14:36:52.876Z,150
2016-08-14T14:37:53.040Z,150
2016-08-14T14:38:52.837Z,155
2016-08-14T14:39:52.850Z,155
2016-08-14T14:40:52.892Z,165
2016-08-14T14:41:52.858Z,180
2016-08-14T14:42:52.894Z,185
2016-08-14T14:43:52.984Z,185
2016-08-14T14:44:52.879Z,185
2016-08-14T14:45:53.063Z,185
2016-08-14T14:46:52.967Z,185
2016-08-14T14:47:53.054Z,175
2016-08-14T14:48:53.081Z,170
2016-08-14T14:49:53.044Z,165
2016-08-14T14:50:52.910Z,160
2016-08-14T14:51:52.897Z,160
2016-08-14T14:52:52.883Z,160
2016-08-14T14:53:52.855Z,155
2016-08-14T14:54:52.846Z,150
2016-08-14T14:55:52.853Z,150
2016-08-14T14:56:52.865Z,150
2016-08-14T14:57:52.881Z,145
2016-08-14T14:58:52.924Z,145
2016-08-14T14:59:52.881Z,145
2016-08-14T15:00:52.864Z,145
2016-08-14T15:01:52.922Z,145
2016-08-14T15:02:52.901Z,150
2016-08-14T15:03:52.922Z,155
2016-08-14T15:04:52.897Z,160
2016-08-14T15:05:52.897Z,160
2016-08-14T15:06:52.955Z,155
2016-08-14T15:07:52.896Z,150
2016-08-14T15:08:52.881Z,145
2016-08-14T15:09:52.925Z,140
2016-08-14T15:10:52.887Z,140
2016-08-14T15:11:52.865Z,140
2016-08-14T15:12:52.940Z,140
2016-08-14T15:13:52.926Z,150
2016-08-14T15:14:52.956Z,145
2016-08-14T15:15:52.877Z,155
2016-08-14T15:16:52.899Z,160
2016-08-14T15:17:52.913Z,165
2016-08-14T15:18:52.864Z,175
2016-08-14T15:19:52.939Z,180
2016-08-14T15:20:52.964Z,180
2016-08-14T15:21:52.909Z,185
2016-08-14T15:22:52.897Z,195
2016-08-14T15:23:52.908Z,205
2016-08-14T15:24:52.947Z,215
2016-08-14T15:25:53.000Z,225
2016-08-14T15:26:52.942Z,235
2016-08-14T15:27:53.753Z,240
2016-08-14T15:28:53.572Z,245
2016-08-14T15:29:52.905Z,250
2016-08-14T15:30:52.979Z,250
2016-08-14T15:31:52.930Z,245
2016-08-14T15:32:53.541Z,245
2016-08-14T15:33:52.960Z,245
2016-08-14T15:34:53.698Z,240
2016-08-14T15:35:53.015Z,240
2016-08-14T15:36:53.450Z,245
2016-08-14T15:37:52.946Z,255
2016-08-14T15:38:53.240Z,260
2016-08-14T15:39:52.957Z,255
2016-08-14T15:40:53.283Z,255
2016-08-14T15:41:52.896Z,265
2016-08-14T15:42:52.898Z,270
2016-08-14T15:43:52.899Z,265
2016-08-14T15:44:52.970Z,265
2016-08-14T15:45:52.977Z,255
2016-08-14T15:46:54.010Z,255
2016-08-14T15:47:53.065Z,245
2016-08-14T15:48:53.025Z,250
2016-08-14T15:49:53.039Z,240
2016-08-14T15:50:52.977Z,230
2016-08-14T15:51:53.066Z,220
2016-08-14T15:52:53.064Z,210
2016-08-14T15:53:52.991Z,195
2016-08-14T15:54:53.012Z,195
2016-08-14T15:55:53.015Z,190
2016-08-14T15:56:52.952Z,190
2016-08-14T15:57:53.029Z,190
2016-08-14T15:58:52.996Z,205
2016-08-14T15:59:53.020Z,200
2016-08-14T16:00:52.939Z,200
2016-08-14T16:01:52.950Z,205
2016-08-14T16:02:52.963Z,205
2016-08-14T16:03:52.986Z,210
2016-08-14T16:04:52.988Z,205
2016-08-14T16:05:52.971Z,205
2016-08-14T16:06:52.984Z,200
2016-08-14T16:07:52.946Z,200
2016-08-14T16:08:52.952Z,200
2016-08-14T16:09:52.972Z,195
2016-08-14T16:10:52.996Z,200
2016-08-14T16:11:52.974Z,200
2016-08-14T16:12:52.977Z,195
2016-08-14T16:13:52.998Z,190
2016-08-14T16:14:53.035Z,180
2016-08-14T16:15:52.945Z,175
2016-08-14T16:16:52.974Z,170
2016-08-14T16:17:52.964Z,175
2016-08-14T16:18:53.037Z,180
2016-08-14T16:19:52.995Z,185
2016-08-14T16:20:52.989Z,185
2016-08-14T16:21:52.978Z,175
2016-08-14T16:22:52.942Z,175
2016-08-14T16:23:52.991Z,175
2016-08-14T16:24:52.932Z,170
2016-08-14T16:25:52.985Z,170
2016-08-14T16:26:52.999Z,165
2016-08-14T16:27:53.008Z,160
2016-08-14T16:28:52.941Z,160
2016-08-14T16:29:52.972Z,155
2016-08-14T16:30:52.972Z,150
2016-08-14T16:31:52.978Z,145
2016-08-14T16:32:52.930Z,140
2016-08-14T16:33:53.056Z,135
2016-08-14T16:34:52.968Z,135
2016-08-14T16:35:52.956Z,135
2016-08-14T16:36:52.982Z,140
2016-08-14T16:37:52.949Z,150
2016-08-14T16:38:53.143Z,155
2016-08-14T16:39:52.959Z,155
2016-08-14T16:40:53.000Z,160
2016-08-14T16:41:53.253Z,155
2016-08-14T16:42:53.813Z,155
2016-08-14T16:43:52.965Z,160
2016-08-14T16:44:53.697Z,155
2016-08-14T16:45:52.954Z,160
2016-08-14T16:46:52.954Z,160
2016-08-14T16:47:52.971Z,165
2016-08-14T16:48:53.124Z,170
2016-08-14T16:49:54.037Z,175
2016-08-14T16:50:52.952Z,175
2016-08-14T16:51:53.408Z,180
2016-08-14T16:52:52.976Z,180
2016-08-14T16:53:53.602Z,175
2016-08-14T16:54:53.029Z,180
2016-08-14T16:55:53.021Z,180
2016-08-14T16:56:53.768Z,180
2016-08-14T16:57:53.460Z,175
2016-08-14T16:58:53.475Z,170
2016-08-14T16:59:52.981Z,165
2016-08-14T17:00:53.233Z,160
2016-08-14T17:01:53.333Z,150
2016-08-14T17:02:52.960Z,140
2016-08-14T17:03:53.438Z,135
2016-08-14T17:04:52.945Z,135
2016-08-14T17:05:53.566Z,125
2016-08-14T17:06:53.022Z,120
2016-08-14T17:07:52.978Z,115
2016-08-14T17:08:52.963Z,115
2016-08-14T17:09:52.979Z,110
2016-08-14T17:10:52.994Z,105
2016-08-14T17:11:53.157Z,105
2016-08-14T17:12:52.990Z,100
2016-08-14T17:13:52.977Z,105
2016-08-14T17:14:52.989Z,100
2016-08-14T17:15:52.996Z,100
2016-08-14T17:16:54.112Z,100
2016-08-14T17:17:53.009Z,100
2016-08-14T17:18:53.148Z,100
2016-08-14T17:19:53.846Z,100
2016-08-14T17:20:53.046Z,100
2016-08-14T17:21:53.620Z,100
2016-08-14T17:22:53.596Z,95
2016-08-14T17:23:53.054Z,95
2016-08-14T17:24:53.053Z,95
2016-08-14T17:25:53.049Z,95
2016-08-14T17:26:52.997Z,95
2016-08-14T17:27:53.704Z,90
2016-08-14T17:28:52.982Z,90
2016-08-14T17:29:53.010Z,90
2016-08-14T17:30:53.717Z,90
2016-08-14T17:31:53.008Z,90
2016-08-14T17:32:53.012Z,90
2016-08-14T17:33:52.998Z,85
2016-08-14T17:34:54.958Z,85
2016-08-14T17:35:53.355Z,85
2016-08-14T17:36:53.803Z,85
2016-08-14T17:37:54.936Z,85
2016-08-14T17:38:53.023Z,80
2016-08-14T17:39:53.733Z,80
2016-08-14T17:40:53.215Z,80
2016-08-14T17:41:54.797Z,80
2016-08-14T17:42:53.173Z,80
2016-08-14T17:43:53.040Z,80
2016-08-14T17:44:53.144Z,75
2016-08-14T17:45:53.049Z,75
2016-08-14T17:46:53.722Z,75
2016-08-14T17:47:53.052Z,75
2016-08-14T17:48:53.052Z,75
2016-08-14T17:49:53.057Z,70
2016-08-14T17:50:53.056Z,70
2016-08-14T17:51:53.108Z,70
2016-08-14T17:52:53.068Z,70
2016-08-14T17:53:53.008Z,70
2016-08-14T17:54:53.019Z,65
2016-08-14T17:55:53.293Z,65
2016-08-14T17:56:53.023Z,65
2016-08-14T17:57:53.371Z,65
2016-08-14T17:58:53.158Z,65
2016-08-14T17:59:53.775Z,60
2016-08-14T18:00:53.474Z,60
2016-08-14T18:01:53.084Z,60
2016-08-14T18:02:53.136Z,60
2016-08-14T18:03:53.128Z,55
2016-08-14T18:04:53.047Z,55
2016-08-14T18:05:53.714Z,55
2016-08-14T18:06:53.075Z,55
2016-08-14T18:07:54.529Z,55
2016-08-14T18:08:53.048Z,50
2016-08-14T18:09:53.042Z,50
2016-08-14T18:10:53.073Z,50
2016-08-14T18:11:53.037Z,50
2016-08-14T18:12:53.041Z,45
2016-08-14T18:13:53.588Z,45
2016-08-14T18:14:53.555Z,45
2016-08-14T18:15:53.073Z,45
2016-08-14T18:16:53.050Z,45
2016-08-14T18:17:53.075Z,40
2016-08-14T18:18:53.700Z,40
2016-08-14T18:19:53.045Z,40
2016-08-14T18:20:53.047Z,40
2016-08-14T18:21:53.078Z,35
2016-08-14T18:22:53.089Z,35
2016-08-14T18:23:53.086Z,35
2016-08-14T18:24:53.120Z,35
2016-08-14T18:25:53.345Z,30
2016-08-14T18:26:53.222Z,30
2016-08-14T18:27:53.137Z,30
2016-08-14T18:28:53.129Z,30
2016-08-14T18:29:53.169Z,30
2016-08-14T18:30:53.076Z,25
2016-08-14T18:31:53.114Z,25
2016-08-14T18:32:53.131Z,25
2016-08-14T18:33:53.163Z,25
2016-08-14T18:34:53.070Z,25
2016-08-14T18:35:53.106Z,20
2016-08-14T18:36:53.138Z,20
2016-08-14T18:37:53.046Z,20
2016-08-14T18:38:53.099Z,20
2016-08-14T18:39:53.122Z,15
2016-08-14T18:40:53.166Z,15
2016-08-14T18:41:53.087Z,15
2016-08-14T18:42:53.119Z,15
2016-08-14T18:43:53.626Z,15
2016-08-14T18:44:53.140Z,15
2016-08-14T18:45:53.087Z,10
2016-08-14T18:46:53.132Z,10
2016-08-14T18:47:53.163Z,10
2016-08-14T18:48:54.549Z,10
2016-08-14T18:49:53.131Z,10
2016-08-14T18:50:53.141Z,10
2016-08-14T18:51:53.141Z,5
2016-08-14T18:52:53.151Z,5
2016-08-14T18:53:53.089Z,5
2016-08-14T18:54:53.118Z,5
2016-08-14T18:55:53.538Z,5
2016-08-14T18:56:53.102Z,5
2016-08-14T18:57:53.214Z,5
2016-08-14T18:58:53.121Z,5
2016-08-14T18:59:53.172Z,5
2016-08-14T19:00:53.171Z,0
2016-08-14T19:01:53.254Z,0
2016-08-14T19:02:53.761Z,0
2016-08-14T19:03:53.174Z,0
2016-08-14T19:06:53.126Z,0
2016-08-14T19:07:53.793Z,0
2016-08-14T19:08:53.125Z,0
2016-08-14T19:09:53.215Z,0
2016-08-14T19:10:53.230Z,0
2016-08-14T19:11:53.170Z,0
2016-08-14T19:12:53.138Z,0
2016-08-14T19:13:53.158Z,0
2016-08-14T19:14:53.120Z,0
2016-08-14T19:15:53.110Z,0
2016-08-14T19:16:53.137Z,0
2016-08-14T19:17:53.127Z,0
2016-08-14T19:18:53.181Z,0
2016-08-14T19:19:53.172Z,0
2016-08-14T19:20:53.229Z,0
2016-08-14T19:21:53.155Z,0
2016-08-14T19:22:53.192Z,0
2016-08-14T19:23:53.193Z,0
2016-08-14T19:24:53.152Z,0
2016-08-14T19:25:53.184Z,0
2016-08-14T19:26:53.823Z,0
2016-08-14T19:27:54.398Z,0
2016-08-14T19:28:53.263Z,0
2016-08-14T19:29:53.149Z,0
2016-08-14T19:30:53.164Z,0
2016-08-14T19:31:53.131Z,0
2016-08-14T19:32:53.214Z,0
2016-08-14T19:33:53.323Z,0
2016-08-14T19:34:53.186Z,0
2016-08-14T19:35:53.149Z,0
2016-08-14T19:36:53.555Z,0
2016-08-14T19:37:53.374Z,0
2016-08-14T19:38:53.161Z,0
2016-08-14T19:39:53.259Z,0
2016-08-14T19:40:53.179Z,0
2016-08-14T19:41:53.127Z,0
2016-08-14T19:42:53.180Z,0
2016-08-14T19:43:53.154Z,0
2016-08-14T19:44:53.156Z,0
2016-08-14T19:45:53.159Z,0
2016-08-14T19:46:53.175Z,0
2016-08-14T19:47:53.227Z,0
2016-08-14T19:48:53.186Z,0
2016-08-14T19:49:53.162Z,0
2016-08-14T19:50:53.182Z,0
2016-08-14T19:51:53.208Z,0
2016-08-14T19:52:53.246Z,0
2016-08-14T19:53:53.216Z,0
2016-08-14T19:54:53.218Z,0
2016-08-14T19:55:53.230Z,0
2016-08-14T19:56:53.181Z,0
2016-08-14T19:57:53.185Z,0
2016-08-14T19:58:53.164Z,0
2016-08-14T19:59:53.227Z,0
2016-08-14T20:00:53.199Z,0
2016-08-14T20:01:53.200Z,0
2016-08-14T20:02:53.260Z,0
2016-08-14T20:03:53.228Z,0
2016-08-14T20:04:53.347Z,0
2016-08-14T20:05:53.228Z,0
2016-08-14T20:06:53.325Z,0
2016-08-14T20:07:53.242Z,0
2016-08-14T20:08:53.273Z,0
2016-08-14T20:09:53.229Z,0
2016-08-14T20:10:53.257Z,0
2016-08-14T20:11:53.247Z,0
2016-08-14T20:12:53.213Z,0
2016-08-14T20:13:53.238Z,0
2016-08-14T20:14:53.226Z,0
2016-08-14T20:15:53.190Z,0
2016-08-14T20:16:53.307Z,0
2016-08-14T20:17:53.172Z,0
2016-08-14T20:18:53.198Z,0
2016-08-14T20:19:53.245Z,0
2016-08-14T20:20:53.228Z,0
2016-08-14T20:21:53.211Z,0
2016-08-14T20:22:53.236Z,0
2016-08-14T20:23:53.230Z,0
2016-08-14T20:24:53.222Z,0
2016-08-14T20:25:53.176Z,0
2016-08-14T20:26:53.216Z,0
2016-08-14T20:27:53.400Z,0
2016-08-14T20:28:53.263Z,0
2016-08-14T20:29:53.294Z,0
2016-08-14T20:30:53.310Z,0
2016-08-14T20:31:53.248Z,0
2016-08-14T20:32:53.312Z,0
2016-08-14T20:33:53.248Z,0
2016-08-14T20:34:53.216Z,0
2016-08-14T20:35:53.271Z,0
2016-08-14T20:36:53.262Z,0
2016-08-14T20:37:53.269Z,0
2016-08-14T20:38:53.244Z,0
2016-08-14T20:39:53.181Z,0
2016-08-14T20:40:53.188Z,0
2016-08-14T20:41:54.221Z,0
2016-08-14T20:42:53.195Z,0
2016-08-14T20:43:53.263Z,0
2016-08-14T20:44:53.253Z,0
2016-08-14T20:45:53.275Z,0
2016-08-14T20:46:53.328Z,0
2016-08-14T20:47:53.289Z,0
2016-08-14T20:48:53.193Z,0
2016-08-14T20:49:53.202Z,0
2016-08-14T20:50:53.198Z,0
2016-08-14T20:51:53.241Z,0
2016-08-14T20:52:53.280Z,0
2016-08-14T20:53:53.230Z,0
2016-08-14T20:54:53.236Z,0
2016-08-14T20:55:53.185Z,0
2016-08-14T20:56:53.652Z,0
2016-08-14T20:57:53.216Z,0
2016-08-14T20:58:53.252Z,0
2016-08-14T20:59:53.231Z,0
2016-08-14T21:00:53.242Z,0
2016-08-14T21:01:53.217Z,0
2016-08-14T21:02:53.228Z,0
2016-08-14T21:03:53.201Z,0
2016-08-14T21:04:53.289Z,0
2016-08-14T21:05:53.281Z,0
2016-08-14T21:06:53.273Z,0
2016-08-14T21:07:53.236Z,0
2016-08-14T21:08:53.255Z,0
2016-08-14T21:09:53.372Z,0
2016-08-14T21:10:53.287Z,0
2016-08-14T21:11:53.273Z,0
2016-08-14T21:12:53.231Z,0
2016-08-14T21:13:53.257Z,0
2016-08-14T21:14:53.433Z,0
2016-08-14T21:15:53.440Z,0
2016-08-14T21:16:53.443Z,0
2016-08-14T21:17:53.414Z,0
2016-08-14T21:18:53.305Z,0
2016-08-14T21:19:53.607Z,0
2016-08-14T21:20:53.262Z,0
2016-08-14T21:21:53.297Z,0
2016-08-14T21:22:53.304Z,0
2016-08-14T21:23:53.325Z,0
2016-08-14T21:24:53.229Z,0
2016-08-14T21:25:53.264Z,0
2016-08-14T21:26:53.252Z,0
2016-08-14T21:27:53.280Z,0
2016-08-14T21:28:53.621Z,0
2016-08-14T21:29:53.282Z,0
2016-08-14T21:30:53.390Z,0
2016-08-14T21:31:53.259Z,0
2016-08-14T21:32:53.413Z,0
2016-08-14T21:33:53.270Z,0
2016-08-14T21:34:53.292Z,0
2016-08-14T21:35:53.359Z,0
2016-08-14T21:36:53.307Z,0
2016-08-14T21:37:53.358Z,0
2016-08-14T21:38:53.397Z,0
2016-08-14T21:39:53.330Z,0
2016-08-14T21:40:53.293Z,0
2016-08-14T21:41:53.337Z,0
2016-08-14T21:42:53.301Z,0
2016-08-14T21:43:53.329Z,0
2016-08-14T21:44:53.321Z,0
2016-08-14T21:45:53.304Z,0
2016-08-14T21:46:53.347Z,0
2016-08-14T21:47:53.677Z,0
2016-08-14T21:48:53.331Z,0
2016-08-14T21:49:53.326Z,0
2016-08-14T21:50:53.287Z,0
2016-08-14T21:51:53.322Z,0
2016-08-14T21:52:53.260Z,0
2016-08-14T21:53:53.293Z,0
2016-08-14T21:54:53.274Z,0
2016-08-14T21:55:53.274Z,0
2016-08-14T21:56:53.304Z,0
2016-08-14T21:57:53.352Z,0
2016-08-14T21:58:53.657Z,0
2016-08-14T21:59:53.401Z,0
2016-08-14T22:00:53.292Z,0
2016-08-14T22:01:53.363Z,0
2016-08-14T22:02:53.380Z,0
2016-08-14T22:03:53.387Z,0
2016-08-14T22:04:53.357Z,0
2016-08-14T22:05:53.276Z,0
2016-08-14T22:06:53.312Z,0
2016-08-14T22:07:53.312Z,0
2016-08-14T22:08:53.357Z,0
2016-08-14T22:09:53.284Z,0
2016-08-14T22:10:53.269Z,0
2016-08-14T22:11:53.357Z,0
2016-08-14T22:12:53.295Z,0
2016-08-14T22:13:53.296Z,0
2016-08-14T22:14:53.331Z,0
2016-08-14T22:15:53.296Z,0
2016-08-14T22:16:53.366Z,0
2016-08-14T22:17:53.265Z,0
2016-08-14T22:18:53.293Z,0
2016-08-14T22:19:53.314Z,0
2016-08-14T22:20:53.378Z,0
2016-08-14T22:21:53.920Z,0
2016-08-14T22:22:53.301Z,0
2016-08-14T22:23:53.280Z,0
2016-08-14T22:24:53.315Z,0
2016-08-14T22:25:53.294Z,0
2016-08-14T22:26:53.298Z,0
2016-08-14T22:27:53.327Z,0
2016-08-14T22:28:53.311Z,0
2016-08-14T22:29:53.323Z,0
2016-08-14T22:30:53.306Z,0
2016-08-14T22:31:53.334Z,0
2016-08-14T22:32:53.339Z,0
2016-08-14T22:33:53.340Z,0
2016-08-14T22:34:53.340Z,0
2016-08-14T22:35:53.384Z,0
2016-08-14T22:36:53.342Z,0
2016-08-14T22:37:53.386Z,0
2016-08-14T22:38:53.380Z,0
2016-08-14T22:39:53.334Z,0
2016-08-14T22:40:53.308Z,0
2016-08-14T22:41:53.376Z,0
2016-08-14T22:42:53.297Z,0
2016-08-14T22:43:53.309Z,0
2016-08-14T22:44:53.309Z,0
2016-08-14T22:45:53.336Z,0
2016-08-14T22:46:53.354Z,0
2016-08-14T22:47:53.361Z,0
2016-08-14T22:48:53.326Z,0
2016-08-14T22:49:53.331Z,0
2016-08-14T22:50:53.343Z,0
2016-08-14T22:51:53.386Z,0
2016-08-14T22:52:53.357Z,0
2016-08-14T22:53:53.344Z,0
2016-08-14T22:54:53.341Z,0
2016-08-14T22:55:53.410Z,0
2016-08-14T22:56:53.435Z,0
2016-08-14T22:58:41.176Z,0
2016-08-14T22:59:46.964Z,0
2016-08-14T23:00:08.199Z,0
2016-08-14T23:01:07.810Z,0
2016-08-14T23:03:10.153Z,0
2016-08-14T23:04:33.376Z,0
2016-08-14T23:05:57.473Z,0
2016-08-14T23:07:20.340Z,0
2016-08-14T23:08:43.706Z,0
2016-08-14T23:10:06.344Z,0
2016-08-14T23:11:29.353Z,0
2016-08-14T23:12:51.294Z,0
2016-08-14T23:14:16.052Z,0
2016-08-14T23:15:38.223Z,0
2016-08-14T23:16:29.751Z,0
2016-08-14T23:17:46.699Z,0
2016-08-14T23:19:02.124Z,0
2016-08-14T23:20:20.150Z,0
2016-08-14T23:21:29.596Z,0
2016-08-14T23:21:41.388Z,0
2016-08-14T23:22:41.795Z,0
2016-08-14T23:23:41.482Z,0
2016-08-14T23:24:41.394Z,0
2016-08-14T23:25:41.415Z,0
2016-08-14T23:26:41.408Z,0
2016-08-14T23:27:41.375Z,0
2016-08-14T23:28:41.408Z,0
2016-08-14T23:29:41.401Z,0
2016-08-14T23:30:41.359Z,0
2016-08-14T23:31:41.403Z,0
2016-08-14T23:32:41.379Z,0
2016-08-14T23:33:41.406Z,0
2016-08-14T23:34:41.427Z,0
2016-08-14T23:35:41.405Z,0
2016-08-14T23:36:41.437Z,0
2016-08-14T23:37:41.402Z,0
2016-08-14T23:38:41.421Z,0
2016-08-14T23:39:41.422Z,0
2016-08-14T23:40:41.423Z,0
2016-08-14T23:41:41.419Z,0
2016-08-14T23:42:41.421Z,0
2016-08-14T23:43:41.445Z,0
2016-08-14T23:44:41.443Z,0
2016-08-14T23:45:41.426Z,0
2016-08-14T23:46:41.418Z,0
2016-08-14T23:47:41.441Z,0
2016-08-14T23:48:41.476Z,0
2016-08-14T23:49:41.422Z,0
2016-08-14T23:50:41.415Z,0
2016-08-14T23:51:41.408Z,0
2016-08-14T23:52:41.419Z,0
2016-08-14T23:53:42.340Z,0
2016-08-14T23:54:41.424Z,0
2016-08-14T23:55:41.419Z,0
2016-08-14T23:56:41.456Z,0
2016-08-14T23:57:41.403Z,0
2016-08-14T23:58:41.423Z,0
2016-08-14T23:59:41.476Z,0
